Time;durP1;ratioP1;P1;durP2;ratioP2;P2;SDS_P1;SDS_P2;PMS_P1;PMS_P2;Temp;Humidity;BMP_temperature;BMP_pressure;BME280_temperature;BME280_humidity;BME280_pressure;Samples;Min_cycle;Max_cycle;Signal;HPM_P1;HPM_P2
2021/03/26 00:01:07;;;;;;;8.45;5.72;;;5.30;84.30;;;;;;5073227;28;20524;-71
2021/03/26 00:03:37;;;;;;;10.73;5.55;;;5.30;84.60;;;;;;5073147;28;20036;-71
2021/03/26 00:06:12;;;;;;;8.98;4.95;;;5.30;84.60;;;;;;5072892;28;20381;-71
2021/03/26 00:08:38;;;;;;;11.82;5.07;;;5.30;84.40;;;;;;5073438;28;20556;-71
2021/03/26 00:11:05;;;;;;;9.95;5.93;;;5.30;84.40;;;;;;5073138;28;20036;-71
2021/03/26 00:13:31;;;;;;;13.88;5.75;;;5.30;84.40;;;;;;5073197;28;20377;-71
2021/03/26 00:15:57;;;;;;;14.27;6.30;;;5.30;84.30;;;;;;5072904;28;20233;-71
2021/03/26 00:18:23;;;;;;;10.63;5.57;;;5.30;84.40;;;;;;5072809;28;20131;-71
2021/03/26 00:20:49;;;;;;;9.52;5.88;;;5.30;84.40;;;;;;5073293;28;20120;-71
2021/03/26 00:23:15;;;;;;;10.00;5.55;;;5.30;84.40;;;;;;5054999;28;20047;-71
2021/03/26 00:25:41;;;;;;;11.45;6.88;;;5.30;84.50;;;;;;5072430;28;20045;-71
2021/03/26 00:28:07;;;;;;;13.75;6.20;;;5.30;84.30;;;;;;5073024;28;20037;-71
2021/03/26 00:30:34;;;;;;;12.80;6.30;;;5.30;84.40;;;;;;5055329;28;20056;-71
2021/03/26 00:33:02;;;;;;;10.75;6.07;;;5.40;84.50;;;;;;5072791;28;20107;-71
2021/03/26 00:35:29;;;;;;;11.23;5.75;;;5.40;84.50;;;;;;5072530;28;20043;-71
2021/03/26 00:37:55;;;;;;;10.05;5.78;;;5.40;84.60;;;;;;5073137;28;20036;-71
2021/03/26 00:40:22;;;;;;;9.05;6.20;;;5.40;84.70;;;;;;5072716;28;20040;-71
2021/03/26 00:42:48;;;;;;;9.32;5.75;;;5.50;84.70;;;;;;5072785;28;20045;-71
2021/03/26 00:45:18;;;;;;;13.27;6.35;;;5.50;84.70;;;;;;5072531;28;20544;-71
2021/03/26 00:47:44;;;;;;;14.02;6.65;;;5.50;84.60;;;;;;5072639;28;20178;-71
2021/03/26 00:50:19;;;;;;;10.07;5.78;;;5.50;84.90;;;;;;5072999;28;20033;-71
2021/03/26 00:52:45;;;;;;;16.23;6.78;;;5.60;85.00;;;;;;5073176;28;20032;-71
2021/03/26 00:55:13;;;;;;;10.57;6.03;;;5.60;85.30;;;;;;5072489;28;20044;-71
2021/03/26 00:57:39;;;;;;;15.48;6.38;;;5.60;85.30;;;;;;5073151;28;20235;-71
2021/03/26 01:00:07;;;;;;;10.95;6.47;;;5.60;85.20;;;;;;5072737;28;20487;-71
2021/03/26 01:02:33;;;;;;;12.70;6.43;;;5.70;85.10;;;;;;5073092;28;20055;-71
2021/03/26 01:04:59;;;;;;;13.90;6.22;;;5.70;85.20;;;;;;5072576;28;20040;-71
2021/03/26 01:07:25;;;;;;;12.38;6.55;;;5.80;85.30;;;;;;5072642;28;20473;-71
2021/03/26 01:09:51;;;;;;;10.70;6.40;;;5.80;85.40;;;;;;5072450;28;20404;-71
2021/03/26 01:12:17;;;;;;;11.98;6.60;;;5.80;85.70;;;;;;5058056;28;20040;-71
2021/03/26 01:14:43;;;;;;;13.95;6.95;;;5.80;85.70;;;;;;5075681;28;20051;-71
2021/03/26 01:17:09;;;;;;;12.48;6.75;;;5.90;85.90;;;;;;5075982;28;20032;-71
2021/03/26 01:19:39;;;;;;;11.05;7.05;;;5.90;85.80;;;;;;5075992;28;20063;-71
2021/03/26 01:22:06;;;;;;;11.05;6.72;;;5.90;85.80;;;;;;5076054;28;20399;-71
2021/03/26 01:24:32;;;;;;;13.25;6.85;;;6.00;85.80;;;;;;5075352;28;20040;-71
2021/03/26 01:26:58;;;;;;;13.68;7.47;;;6.00;85.70;;;;;;5075710;28;20119;-71
2021/03/26 01:29:26;;;;;;;10.70;6.20;;;6.10;85.40;;;;;;5075835;28;20486;-71
2021/03/26 01:31:51;;;;;;;15.65;7.13;;;6.10;85.50;;;;;;5075695;28;20449;-71
2021/03/26 01:34:17;;;;;;;14.48;7.03;;;6.20;85.20;;;;;;5057942;28;20072;-71
2021/03/26 01:36:43;;;;;;;16.13;7.43;;;6.20;85.10;;;;;;5075363;28;20470;-71
2021/03/26 01:39:09;;;;;;;13.80;6.15;;;6.20;85.00;;;;;;5075664;28;20150;-71
2021/03/26 01:41:47;;;;;;;10.50;6.97;;;6.20;84.90;;;;;;5075952;28;20086;-71
2021/03/26 01:44:14;;;;;;;10.45;6.75;;;6.20;85.10;;;;;;5076054;28;20047;-71
2021/03/26 01:46:41;;;;;;;14.82;6.40;;;6.20;85.20;;;;;;5075015;28;20076;-71
2021/03/26 01:49:08;;;;;;;13.48;6.13;;;6.20;85.40;;;;;;5075539;28;20119;-71
2021/03/26 01:51:42;;;;;;;15.85;6.85;;;6.20;85.50;;;;;;5075225;28;20124;-71
2021/03/26 01:54:10;;;;;;;11.95;6.53;;;6.30;85.30;;;;;;5075359;28;20052;-71
2021/03/26 01:56:36;;;;;;;18.08;7.45;;;6.30;85.10;;;;;;5075269;28;20076;-71
2021/03/26 01:59:02;;;;;;;20.67;6.70;;;6.30;85.10;;;;;;5075057;28;20439;-71
2021/03/26 02:01:36;;;;;;;11.95;6.10;;;6.30;84.90;;;;;;5075144;28;20568;-71
2021/03/26 02:04:06;;;;;;;10.30;5.90;;;6.30;84.90;;;;;;5075121;28;20036;-71
2021/03/26 02:06:36;;;;;;;12.48;6.78;;;6.30;85.30;;;;;;5074850;28;20068;-71
2021/03/26 02:09:32;;;;;;;13.15;5.72;;;6.30;85.60;;;;;;5075381;28;20036;-71
2021/03/26 02:12:04;;;;;;;12.40;6.28;;;6.30;86.20;;;;;;5073548;28;20053;-71
2021/03/26 02:14:38;;;;;;;12.43;6.00;;;6.30;86.40;;;;;;5074841;28;20067;-72
2021/03/26 02:17:06;;;;;;;12.60;6.75;;;6.30;86.20;;;;;;5057274;28;20048;-71
2021/03/26 02:19:45;;;;;;;11.63;5.70;;;6.30;86.30;;;;;;5074710;28;20047;-71
2021/03/26 02:22:13;;;;;;;10.30;5.43;;;6.30;86.50;;;;;;5073708;28;20067;-72
2021/03/26 02:24:41;;;;;;;11.38;5.93;;;6.40;85.90;;;;;;5074461;28;20058;-71
2021/03/26 02:27:18;;;;;;;12.70;5.60;;;6.40;86.40;;;;;;5074714;28;20047;-71
2021/03/26 02:29:45;;;;;;;10.02;5.40;;;6.40;86.00;;;;;;5074746;28;20094;-71
2021/03/26 02:32:30;;;;;;;13.07;6.03;;;6.50;85.80;;;;;;5075179;28;20048;-71
2021/03/26 02:35:11;;;;;;;11.90;5.03;;;6.50;85.80;;;;;;5074167;28;20047;-71
2021/03/26 02:37:40;;;;;;;14.30;6.60;;;6.50;85.50;;;;;;5074492;28;20109;-71
2021/03/26 02:40:16;;;;;;;16.23;5.88;;;6.50;85.70;;;;;;5074607;28;20037;-71
2021/03/26 02:42:45;;;;;;;11.02;5.32;;;6.60;85.70;;;;;;5056564;28;20058;-71
2021/03/26 02:45:23;;;;;;;12.27;5.70;;;6.60;85.40;;;;;;5074275;28;20069;-71
2021/03/26 02:47:58;;;;;;;13.15;5.45;;;6.70;85.10;;;;;;5074318;28;20123;-71
2021/03/26 02:51:00;;;;;;;12.07;5.68;;;6.70;85.00;;;;;;5056926;28;20138;-71
2021/03/26 02:53:48;;;;;;;8.07;5.97;;;6.70;85.10;;;;;;5074477;28;20380;-71
2021/03/26 02:56:24;;;;;;;11.82;5.88;;;6.70;84.50;;;;;;5073794;28;20518;-71
2021/03/26 02:58:58;;;;;;;9.27;5.88;;;6.70;84.40;;;;;;5074193;28;20036;-71
2021/03/26 03:01:45;;;;;;;14.88;6.40;;;6.80;84.20;;;;;;5074219;28;20047;-71
2021/03/26 03:04:27;;;;;;;14.23;6.60;;;6.80;84.30;;;;;;5073948;28;20097;-71
2021/03/26 03:07:02;;;;;;;11.15;5.97;;;6.80;84.20;;;;;;5073818;28;20036;-71
2021/03/26 03:09:30;;;;;;;11.65;5.82;;;6.80;84.20;;;;;;5073887;28;20442;-71
2021/03/26 03:12:01;;;;;;;10.57;5.63;;;6.80;84.10;;;;;;5073682;28;20059;-72
2021/03/26 03:14:34;;;;;;;10.43;6.35;;;6.80;84.10;;;;;;5073429;28;20072;-71
2021/03/26 03:17:09;;;;;;;13.15;6.65;;;6.80;84.10;;;;;;5073936;28;20045;-71
2021/03/26 03:19:45;;;;;;;14.32;6.80;;;6.80;84.30;;;;;;5073558;28;20060;-71
2021/03/26 03:22:26;;;;;;;16.13;6.97;;;6.70;84.70;;;;;;5073699;28;20037;-71
2021/03/26 03:24:55;;;;;;;12.90;7.65;;;6.70;84.80;;;;;;5073326;28;20040;-72
2021/03/26 03:27:34;;;;;;;13.50;7.85;;;6.60;84.90;;;;;;5073551;28;20051;-71
2021/03/26 03:30:57;;;;;;;16.17;8.25;;;6.70;85.20;;;;;;5073960;28;20392;-71
2021/03/26 03:33:41;;;;;;;16.77;8.95;;;6.60;85.30;;;;;;4991843;28;20049;-71
2021/03/26 03:36:18;;;;;;;;;;;6.70;85.20;;;;;;4992105;28;20092;-71
2021/03/26 03:39:13;;;;;;;17.67;9.50;;;6.60;85.70;;;;;;5057326;28;20023;-71
2021/03/26 03:42:06;;;;;;;20.13;10.88;;;6.60;85.90;;;;;;5073530;28;20094;-71
2021/03/26 03:44:36;;;;;;;19.83;10.40;;;6.60;85.80;;;;;;5031901;28;20048;-71
2021/03/26 03:47:26;;;;;;;17.45;10.65;;;6.60;85.70;;;;;;5073348;28;20040;-71
2021/03/26 03:49:56;;;;;;;19.08;11.77;;;6.60;86.10;;;;;;5073416;28;20362;-71
2021/03/26 03:52:36;;;;;;;20.27;11.13;;;6.50;86.20;;;;;;5073131;28;20048;-71
2021/03/26 03:55:24;;;;;;;20.23;11.38;;;6.50;86.90;;;;;;5055418;28;20041;-71
2021/03/26 03:58:03;;;;;;;24.88;13.23;;;6.50;86.50;;;;;;5073296;28;20033;-72
2021/03/26 04:00:43;;;;;;;22.77;12.95;;;6.50;86.60;;;;;;5073149;28;20041;-71
2021/03/26 04:03:22;;;;;;;29.20;13.10;;;6.50;86.50;;;;;;5073098;28;20033;-71
2021/03/26 04:06:03;;;;;;;24.02;14.52;;;6.50;86.50;;;;;;5072822;28;20495;-71
2021/03/26 04:08:43;;;;;;;21.05;12.85;;;6.40;86.50;;;;;;5073262;28;20542;-71
2021/03/26 04:11:09;;;;;;;23.17;13.80;;;6.30;86.80;;;;;;5073412;28;20063;-71
2021/03/26 04:13:41;;;;;;;27.02;13.60;;;6.30;86.70;;;;;;5073029;28;20540;-71
2021/03/26 04:16:13;;;;;;;25.53;13.70;;;6.20;86.70;;;;;;5072726;28;20059;-72
2021/03/26 04:18:44;;;;;;;25.55;14.57;;;6.20;87.00;;;;;;5073100;28;20836;-71
2021/03/26 04:21:21;;;;;;;24.20;13.88;;;6.20;87.40;;;;;;5072998;28;20032;-71
2021/03/26 04:23:57;;;;;;;26.75;16.45;;;6.20;87.50;;;;;;5073360;28;20111;-71
2021/03/26 04:26:44;;;;;;;27.50;15.48;;;6.20;87.60;;;;;;5073164;28;20473;-72
2021/03/26 04:29:23;;;;;;;31.80;16.27;;;6.30;87.70;;;;;;5073544;28;20051;-72
2021/03/26 04:32:11;;;;;;;26.63;16.90;;;6.20;87.80;;;;;;5073015;28;20037;-71
2021/03/26 04:34:42;;;;;;;27.27;17.33;;;6.30;88.00;;;;;;5072894;28;20044;-71
2021/03/26 04:37:28;;;;;;;26.95;17.27;;;6.30;87.60;;;;;;5054930;28;20071;-71
2021/03/26 04:40:18;;;;;;;25.90;17.20;;;6.40;87.80;;;;;;5073060;28;20037;-72
2021/03/26 04:43:04;;;;;;;33.03;18.35;;;6.40;88.30;;;;;;5073137;28;20037;-71
2021/03/26 04:45:30;;;;;;;29.10;17.75;;;6.40;88.00;;;;;;5073521;28;20166;-72
2021/03/26 04:48:08;;;;;;;31.05;18.98;;;6.50;88.20;;;;;;5076702;28;20494;-72
2021/03/26 04:50:38;;;;;;;36.58;18.23;;;6.50;89.00;;;;;;5076715;28;20137;-71
2021/03/26 04:53:14;;;;;;;34.05;19.65;;;6.60;88.40;;;;;;5076572;28;20048;-71
2021/03/26 04:55:48;;;;;;;37.85;21.85;;;6.60;88.90;;;;;;5076076;28;20480;-71
2021/03/26 04:58:21;;;;;;;33.10;19.75;;;6.60;88.90;;;;;;5076530;28;20047;-72
2021/03/26 05:00:50;;;;;;;36.08;20.77;;;6.60;89.30;;;;;;5076841;28;20388;-71
2021/03/26 05:03:28;;;;;;;38.30;22.75;;;6.60;89.40;;;;;;5076119;28;20032;-71
2021/03/26 05:06:01;;;;;;;34.50;21.58;;;6.60;89.80;;;;;;5075891;28;20102;-71
2021/03/26 05:08:28;;;;;;;38.47;22.90;;;6.60;89.70;;;;;;5076256;28;20032;-71
2021/03/26 05:10:58;;;;;;;34.42;21.35;;;6.70;89.60;;;;;;5076110;28;20041;-71
2021/03/26 05:13:49;;;;;;;37.83;20.95;;;6.70;89.60;;;;;;5076157;28;20115;-71
2021/03/26 05:16:21;;;;;;;34.35;21.13;;;6.70;89.80;;;;;;5058322;28;20555;-71
2021/03/26 05:19:23;;;;;;;39.23;22.77;;;6.80;89.40;;;;;;5076006;28;20447;-71
2021/03/26 05:22:20;;;;;;;31.27;22.08;;;6.80;89.90;;;;;;5033333;28;20052;-71
2021/03/26 05:24:59;;;;;;;36.50;21.27;;;6.90;89.40;;;;;;5075892;28;20036;-71
2021/03/26 05:27:25;;;;;;;35.30;23.55;;;6.90;89.60;;;;;;5057901;28;20115;-71
2021/03/26 05:29:51;;;;;;;34.38;21.73;;;6.80;89.90;;;;;;5075899;28;20040;-71
2021/03/26 05:32:25;;;;;;;40.40;22.30;;;6.80;90.00;;;;;;5075986;28;20040;-71
2021/03/26 05:34:55;;;;;;;;;;;6.90;90.00;;;;;;5075788;28;20090;-71
2021/03/26 05:37:26;;;;;;;37.20;21.02;;;6.90;90.10;;;;;;5075750;28;19956;-71
2021/03/26 05:40:27;;;;;;;34.83;20.75;;;6.90;90.10;;;;;;5075610;28;20038;-71
2021/03/26 05:43:11;;;;;;;36.08;22.20;;;6.90;90.20;;;;;;5075735;28;20093;-71
2021/03/26 05:45:52;;;;;;;41.08;22.20;;;6.90;90.10;;;;;;5075205;28;20502;-71
2021/03/26 05:48:33;;;;;;;30.90;21.20;;;7.00;90.10;;;;;;5075395;28;20396;-71
2021/03/26 05:51:20;;;;;;;34.35;20.70;;;7.00;90.10;;;;;;5075962;28;20483;-71
2021/03/26 05:53:46;;;;;;;36.47;21.67;;;7.00;90.00;;;;;;5075820;28;20052;-70
2021/03/26 05:56:31;;;;;;;33.17;20.88;;;7.10;90.00;;;;;;5074700;28;20032;-70
2021/03/26 05:59:51;;;;;;;33.13;20.45;;;7.10;89.80;;;;;;5075692;28;20544;-70
2021/03/26 06:02:41;;;;;;;34.97;20.55;;;7.20;89.70;;;;;;4994073;28;20047;-70
2021/03/26 06:05:44;;;;;;;31.55;20.48;;;7.20;90.00;;;;;;5071926;28;20432;-70
2021/03/26 06:08:45;;;;;;;33.45;20.90;;;7.20;89.80;;;;;;5074964;28;20029;-70
2021/03/26 06:11:43;;;;;;;33.55;20.88;;;7.30;89.40;;;;;;5030560;28;20105;-70
2021/03/26 06:14:25;;;;;;;38.72;20.02;;;7.40;89.20;;;;;;5075053;28;20041;-70
2021/03/26 06:17:19;;;;;;;33.60;20.73;;;7.40;89.10;;;;;;5075400;28;20090;-70
2021/03/26 06:20:00;;;;;;;28.95;19.58;;;7.50;89.00;;;;;;5074916;28;20034;-70
2021/03/26 06:22:44;;;;;;;31.77;19.65;;;7.60;88.50;;;;;;5075366;28;20036;-70
2021/03/26 06:25:38;;;;;;;36.38;21.15;;;7.60;88.30;;;;;;5074365;28;20082;-70
2021/03/26 06:28:13;;;;;;;31.48;20.48;;;7.60;89.00;;;;;;5075099;28;20067;-70
2021/03/26 06:30:51;;;;;;;33.42;20.80;;;7.60;89.00;;;;;;5074697;28;20032;-71
2021/03/26 06:33:43;;;;;;;36.70;21.23;;;7.70;89.00;;;;;;5073741;28;20111;-72
2021/03/26 06:36:48;;;;;;;31.83;20.92;;;7.70;89.80;;;;;;5072034;28;20135;-72
2021/03/26 06:39:34;;;;;;;35.03;21.95;;;7.70;89.80;;;;;;5073313;28;20040;-72
2021/03/26 06:42:08;;;;;;;32.22;19.73;;;7.80;90.20;;;;;;5031963;28;20083;-72
2021/03/26 06:45:12;;;;;;;38.75;23.60;;;7.80;90.30;;;;;;5072758;28;20040;-72
2021/03/26 06:47:53;;;;;;;38.22;23.33;;;7.80;90.50;;;;;;5073186;28;20040;-71
2021/03/26 06:50:46;;;;;;;37.60;22.80;;;7.80;90.60;;;;;;5056611;28;20032;-71
2021/03/26 06:53:31;;;;;;;37.83;22.55;;;7.80;91.20;;;;;;5074351;28;20383;-72
2021/03/26 06:56:23;;;;;;;36.88;23.15;;;7.80;91.50;;;;;;5074285;28;20033;-71
2021/03/26 06:59:14;;;;;;;39.50;24.55;;;7.80;91.80;;;;;;5074381;28;20032;-71
2021/03/26 07:02:06;;;;;;;49.08;25.00;;;7.80;91.60;;;;;;5074108;28;20036;-71
2021/03/26 07:04:59;;;;;;;41.40;25.95;;;7.80;91.90;;;;;;5073759;28;20040;-71
2021/03/26 07:08:07;;;;;;;37.28;23.95;;;7.80;91.80;;;;;;5073903;28;20123;-71
2021/03/26 07:10:51;;;;;;;44.38;25.83;;;7.90;91.90;;;;;;5074426;28;20068;-71
2021/03/26 07:13:27;;;;;;;39.80;24.75;;;7.90;91.90;;;;;;5073759;28;20037;-71
2021/03/26 07:16:00;;;;;;;36.92;22.85;;;8.00;91.90;;;;;;5073420;28;20051;-71
2021/03/26 07:18:50;;;;;;;39.22;24.23;;;8.10;92.10;;;;;;5055883;28;20059;-71
2021/03/26 07:21:35;;;;;;;40.95;24.58;;;8.10;92.00;;;;;;5073675;28;20035;-71
2021/03/26 07:24:28;;;;;;;40.30;23.73;;;8.20;91.90;;;;;;5073762;28;20032;-71
2021/03/26 07:27:17;;;;;;;37.50;22.70;;;8.30;92.00;;;;;;5073537;28;20044;-72
2021/03/26 07:30:17;;;;;;;37.72;23.45;;;8.30;91.90;;;;;;5073880;28;20140;-72
2021/03/26 07:32:49;;;;;;;38.92;24.52;;;8.40;92.00;;;;;;5073396;28;20044;-72
2021/03/26 07:35:28;;;;;;;40.63;21.23;;;8.40;91.80;;;;;;5072998;28;20389;-72
2021/03/26 07:38:31;;;;;;;40.38;22.33;;;8.40;91.80;;;;;;5073696;28;20039;-72
2021/03/26 07:41:15;;;;;;;39.80;23.20;;;8.50;91.90;;;;;;5073416;28;20457;-72
2021/03/26 07:44:07;;;;;;;39.03;22.45;;;8.50;92.00;;;;;;5072874;28;20480;-72
2021/03/26 07:46:35;;;;;;;41.03;24.05;;;8.40;92.10;;;;;;5073065;28;20046;-72
2021/03/26 07:49:05;;;;;;;38.63;23.73;;;8.50;92.00;;;;;;5073694;28;20090;-72
2021/03/26 07:52:01;;;;;;;35.72;22.95;;;8.50;91.90;;;;;;5073493;28;20040;-72
2021/03/26 07:54:55;;;;;;;39.92;22.52;;;8.50;92.00;;;;;;5072686;28;20055;-72
2021/03/26 07:57:43;;;;;;;;;;;8.60;92.10;;;;;;5073667;28;20109;-72
2021/03/26 08:00:17;;;;;;;37.13;23.70;;;8.60;92.20;;;;;;5073399;28;20284;-72
2021/03/26 08:03:21;;;;;;;35.13;23.38;;;8.60;92.00;;;;;;5073530;28;20064;-72
2021/03/26 08:06:04;;;;;;;41.83;25.00;;;8.70;92.00;;;;;;5072801;28;20048;-72
2021/03/26 08:08:33;;;;;;;35.95;23.35;;;8.70;91.90;;;;;;5073382;28;20105;-72
2021/03/26 08:11:21;;;;;;;41.35;25.55;;;8.70;91.70;;;;;;5073252;28;20047;-72
2021/03/26 08:14:11;;;;;;;36.28;23.63;;;8.70;91.90;;;;;;5073306;28;20041;-72
2021/03/26 08:16:52;;;;;;;40.67;24.23;;;8.70;91.90;;;;;;5072805;28;20032;-72
2021/03/26 08:19:51;;;;;;;43.05;24.63;;;8.70;91.90;;;;;;5073600;28;20047;-72
2021/03/26 08:22:17;;;;;;;39.53;24.33;;;8.70;91.70;;;;;;5046188;28;20136;-72
2021/03/26 08:24:50;;;;;;;42.47;25.13;;;8.70;91.70;;;;;;5076746;28;20127;-72
2021/03/26 08:27:25;;;;;;;38.05;25.27;;;8.70;91.70;;;;;;5077040;28;20491;-72
2021/03/26 08:30:09;;;;;;;41.10;25.25;;;8.60;91.70;;;;;;5077450;28;20476;-72
2021/03/26 08:33:03;;;;;;;46.63;26.85;;;8.70;91.50;;;;;;5077461;28;20039;-72
2021/03/26 08:36:05;;;;;;;41.13;26.15;;;8.70;91.80;;;;;;5076471;28;20048;-72
2021/03/26 08:39:15;;;;;;;43.90;26.15;;;8.70;92.00;;;;;;5077412;28;20036;-72
2021/03/26 08:41:46;;;;;;;42.83;26.52;;;8.80;91.70;;;;;;5076933;28;20091;-72
2021/03/26 08:44:16;;;;;;;44.80;24.38;;;8.80;91.70;;;;;;5076987;28;20044;-72
2021/03/26 08:46:48;;;;;;;46.40;25.90;;;8.80;91.60;;;;;;5076615;28;20040;-72
2021/03/26 08:49:23;;;;;;;42.72;25.90;;;8.90;91.70;;;;;;5076544;28;20044;-72
2021/03/26 08:52:13;;;;;;;43.05;27.05;;;8.90;91.40;;;;;;5076801;28;20033;-72
2021/03/26 08:54:57;;;;;;;41.17;26.52;;;8.90;91.70;;;;;;5058563;28;20042;-72
2021/03/26 08:57:49;;;;;;;44.83;26.10;;;9.00;91.60;;;;;;5076565;28;20041;-72
2021/03/26 09:00:33;;;;;;;38.92;25.50;;;9.10;91.60;;;;;;5076336;28;20044;-72
2021/03/26 09:03:20;;;;;;;41.80;25.35;;;9.20;91.50;;;;;;5076298;28;20036;-72
2021/03/26 09:06:20;;;;;;;38.00;23.85;;;9.30;91.30;;;;;;5075860;28;20047;-72
2021/03/26 09:09:12;;;;;;;39.95;25.27;;;9.40;90.90;;;;;;5058342;28;20543;-72
2021/03/26 09:11:49;;;;;;;38.70;25.13;;;9.50;90.90;;;;;;5076643;28;20537;-72
2021/03/26 09:14:26;;;;;;;41.63;24.73;;;9.60;91.00;;;;;;5076268;28;20047;-72
2021/03/26 09:17:04;;;;;;;38.75;24.65;;;9.60;90.70;;;;;;5076023;28;20125;-72
2021/03/26 09:19:54;;;;;;;41.47;24.13;;;9.70;90.60;;;;;;5076278;28;20043;-72
2021/03/26 09:22:34;;;;;;;40.53;25.20;;;9.80;90.40;;;;;;5075989;28;20036;-72
2021/03/26 09:25:02;;;;;;;37.47;23.50;;;9.90;90.30;;;;;;5057718;28;20435;-72
2021/03/26 09:27:53;;;;;;;40.72;24.42;;;10.00;90.30;;;;;;5075902;28;20048;-72
2021/03/26 09:30:25;;;;;;;36.47;23.33;;;10.20;90.30;;;;;;5075830;28;20036;-72
2021/03/26 09:32:55;;;;;;;37.10;23.60;;;10.30;89.90;;;;;;5075190;28;20040;-71
2021/03/26 09:35:26;;;;;;;38.35;23.15;;;10.50;89.90;;;;;;5075385;28;20119;-71
2021/03/26 09:38:07;;;;;;;35.42;21.65;;;10.60;89.50;;;;;;5076208;28;20040;-71
2021/03/26 09:40:47;;;;;;;33.45;21.13;;;10.70;88.10;;;;;;5075819;28;20037;-71
2021/03/26 09:43:22;;;;;;;31.40;20.98;;;10.90;87.90;;;;;;5076258;28;20094;-71
2021/03/26 09:45:59;;;;;;;37.75;21.30;;;11.20;86.50;;;;;;5075379;28;20044;-71
2021/03/26 09:49:02;;;;;;;36.42;21.42;;;11.40;86.10;;;;;;5075847;28;20041;-72
2021/03/26 09:51:41;;;;;;;34.97;20.75;;;11.60;85.80;;;;;;5076211;28;20036;-71
2021/03/26 09:54:40;;;;;;;34.42;20.42;;;11.70;85.40;;;;;;5059613;28;20044;-72
2021/03/26 09:57:16;;;;;;;31.08;19.25;;;12.00;85.80;;;;;;5055410;28;20102;-71
2021/03/26 10:00:01;;;;;;;28.02;18.08;;;12.10;84.60;;;;;;5037508;28;20037;-72
2021/03/26 10:02:39;;;;;;;29.95;19.08;;;12.00;82.50;;;;;;5055223;28;20040;-72
2021/03/26 10:05:49;;;;;;;30.83;19.90;;;12.10;82.50;;;;;;5054729;28;20116;-72
2021/03/26 10:11:08;;;;;;;25.13;18.40;;;12.30;84.80;;;;;;5055360;28;20056;-72
2021/03/26 10:13:55;;;;;;;27.05;18.00;;;12.40;84.50;;;;;;5055214;28;20116;-72
2021/03/26 10:17:12;;;;;;;24.95;16.08;;;12.50;82.50;;;;;;5036261;28;20056;-71
2021/03/26 10:19:50;;;;;;;25.35;16.42;;;12.50;81.30;;;;;;5037163;28;20043;-71
2021/03/26 10:22:50;;;;;;;24.42;15.27;;;12.50;80.80;;;;;;5055181;28;20044;-71
2021/03/26 10:25:32;;;;;;;26.00;16.02;;;12.60;80.70;;;;;;5053641;28;20053;-72
2021/03/26 10:28:12;;;;;;;24.85;15.75;;;12.70;80.10;;;;;;5055336;28;20037;-71
2021/03/26 10:31:00;;;;;;;26.55;16.38;;;12.80;80.50;;;;;;5054374;28;20048;-72
2021/03/26 10:33:27;;;;;;;28.98;16.42;;;12.80;78.50;;;;;;5054492;28;20047;-72
2021/03/26 10:36:16;;;;;;;29.38;17.33;;;12.90;79.20;;;;;;5054191;28;20037;-72
2021/03/26 10:38:53;;;;;;;28.25;16.45;;;13.00;78.40;;;;;;5054913;28;20048;-71
2021/03/26 10:41:43;;;;;;;23.40;14.63;;;13.10;78.50;;;;;;5054396;28;20037;-71
2021/03/26 10:45:14;;;;;;;29.23;15.55;;;13.10;77.60;;;;;;5053367;28;20040;-72
2021/03/26 10:47:39;;;;;;;21.13;13.07;;;13.30;77.90;;;;;;4954296;29;20533;-71
2021/03/26 10:50:11;;;;;;;24.38;13.75;;;13.30;76.20;;;;;;4954531;29;20122;-71
2021/03/26 10:52:44;;;;;;;25.70;15.05;;;13.30;76.60;;;;;;5022693;28;20547;-72
2021/03/26 10:55:17;;;;;;;20.95;12.93;;;13.40;76.10;;;;;;5053840;28;20041;-70
2021/03/26 10:57:52;;;;;;;19.38;13.18;;;13.50;76.10;;;;;;5054732;28;20135;-70
2021/03/26 11:00:40;;;;;;;22.88;13.90;;;13.50;76.10;;;;;;5054558;28;20041;-71
2021/03/26 11:03:19;;;;;;;25.13;12.07;;;13.70;75.00;;;;;;5054331;28;20041;-71
2021/03/26 11:06:01;;;;;;;16.80;10.68;;;13.70;75.00;;;;;;5053824;28;20120;-71
2021/03/26 11:08:32;;;;;;;16.40;10.35;;;13.80;72.10;;;;;;5053624;28;20088;-72
2021/03/26 11:10:58;;;;;;;17.48;10.57;;;14.10;72.30;;;;;;5053751;28;20116;-72
2021/03/26 11:13:50;;;;;;;18.95;11.20;;;14.30;71.80;;;;;;5053845;28;20127;-73
2021/03/26 11:16:22;;;;;;;14.02;9.90;;;14.40;71.00;;;;;;5053679;28;20037;-72
2021/03/26 11:19:17;;;;;;;16.02;9.45;;;14.50;71.40;;;;;;5053684;28;20045;-72
2021/03/26 11:21:49;;;;;;;14.65;8.40;;;14.60;68.70;;;;;;5054392;28;20041;-72
2021/03/26 11:24:16;;;;;;;20.73;9.35;;;14.70;68.90;;;;;;5053700;28;20032;-71
2021/03/26 11:26:45;;;;;;;19.98;9.95;;;14.70;68.90;;;;;;5058887;28;20044;-72
2021/03/26 11:29:20;;;;;;;13.68;8.95;;;14.70;67.20;;;;;;5055933;28;20037;-72
2021/03/26 11:32:01;;;;;;;14.80;8.38;;;14.70;67.70;;;;;;5073819;28;20395;-73
2021/03/26 11:34:35;;;;;;;17.38;8.27;;;14.60;66.60;;;;;;5073195;28;20044;-72
2021/03/26 11:37:24;;;;;;;15.10;6.90;;;14.50;65.40;;;;;;5073611;28;20043;-71
2021/03/26 11:40:09;;;;;;;12.65;8.05;;;14.40;64.80;;;;;;5073364;28;20048;-71
2021/03/26 11:42:46;;;;;;;16.25;8.00;;;14.30;64.40;;;;;;5073614;28;20434;-71
2021/03/26 11:45:33;;;;;;;11.43;6.68;;;14.10;64.30;;;;;;5054913;28;20044;-72
2021/03/26 11:48:10;;;;;;;16.33;8.60;;;14.10;63.20;;;;;;5073536;28;20037;-71
2021/03/26 11:50:49;;;;;;;12.75;6.68;;;14.10;64.70;;;;;;5055341;28;20048;-73
2021/03/26 11:53:34;;;;;;;13.02;8.25;;;14.20;65.00;;;;;;5073467;28;20048;-72
2021/03/26 11:56:28;;;;;;;18.75;9.63;;;14.20;63.50;;;;;;5072639;28;20064;-72
2021/03/26 11:59:20;;;;;;;15.18;8.60;;;14.20;64.50;;;;;;5071454;28;20048;-72
2021/03/26 12:02:21;;;;;;;13.55;7.78;;;14.40;65.60;;;;;;5073067;28;20094;-71
2021/03/26 12:04:53;;;;;;;15.05;8.57;;;14.30;65.20;;;;;;5073218;28;20048;-72
2021/03/26 12:07:29;;;;;;;11.13;8.18;;;14.30;64.20;;;;;;5055044;28;20044;-71
2021/03/26 12:10:09;;;;;;;13.68;8.35;;;14.40;64.80;;;;;;5055616;28;20123;-72
2021/03/26 12:12:44;;;;;;;14.93;8.98;;;14.60;64.70;;;;;;5073087;28;20403;-72
2021/03/26 12:15:30;;;;;;;14.50;8.77;;;14.60;63.80;;;;;;5072302;28;20064;-72
2021/03/26 12:18:24;;;;;;;13.68;8.02;;;14.50;63.40;;;;;;5054898;28;20183;-72
2021/03/26 12:21:00;;;;;;;12.40;7.70;;;14.40;63.00;;;;;;5055211;28;20064;-72
2021/03/26 12:23:49;;;;;;;11.88;7.38;;;14.40;62.20;;;;;;5073212;28;20064;-72
2021/03/26 12:26:26;;;;;;;14.10;8.13;;;14.40;64.10;;;;;;5072766;28;20427;-72
2021/03/26 12:28:55;;;;;;;12.20;7.28;;;14.50;63.90;;;;;;5073269;28;20040;-72
2021/03/26 12:31:38;;;;;;;15.40;6.82;;;14.50;62.40;;;;;;5072911;28;20040;-72
2021/03/26 12:34:45;;;;;;;14.85;8.02;;;14.50;62.00;;;;;;5072921;28;20119;-72
2021/03/26 12:37:19;;;;;;;14.02;7.63;;;14.50;61.30;;;;;;5028251;28;20440;-72
2021/03/26 12:39:54;;;;;;;15.70;8.55;;;14.50;63.00;;;;;;5073056;28;20507;-72
2021/03/26 12:42:25;;;;;;;12.10;8.15;;;14.50;64.20;;;;;;5072967;28;20049;-71
2021/03/26 12:44:58;;;;;;;13.00;8.63;;;14.50;63.30;;;;;;5072406;28;20043;-72
2021/03/26 12:47:44;;;;;;;13.57;8.65;;;14.60;63.00;;;;;;5072735;28;20041;-72
2021/03/26 12:50:22;;;;;;;13.38;7.68;;;14.60;63.40;;;;;;5072735;28;20106;-72
2021/03/26 12:53:15;;;;;;;10.95;7.25;;;14.70;62.80;;;;;;5072473;28;20048;-72
2021/03/26 12:56:22;;;;;;;9.88;6.43;;;14.70;62.10;;;;;;5072746;28;20486;-72
2021/03/26 12:58:55;;;;;;;11.95;6.80;;;14.60;61.20;;;;;;5033043;28;20458;-72
2021/03/26 13:01:41;;;;;;;11.57;6.15;;;14.50;61.30;;;;;;5054709;28;20381;-72
2021/03/26 13:04:33;;;;;;;10.38;6.25;;;14.50;61.80;;;;;;5054750;28;20039;-72
2021/03/26 13:07:04;;;;;;;11.43;5.88;;;14.50;61.00;;;;;;5043438;28;20057;-72
2021/03/26 13:09:38;;;;;;;12.07;6.18;;;14.50;60.70;;;;;;5076682;28;20105;-72
2021/03/26 13:12:18;;;;;;;7.80;4.82;;;14.60;60.20;;;;;;5076602;28;20423;-72
2021/03/26 13:14:52;;;;;;;8.88;5.00;;;14.80;60.50;;;;;;5075842;28;20047;-73
2021/03/26 13:17:30;;;;;;;8.07;4.97;;;14.90;60.60;;;;;;5058335;28;20039;-72
2021/03/26 13:20:10;;;;;;;12.10;4.45;;;15.20;59.40;;;;;;5076131;28;20040;-72
2021/03/26 13:22:48;;;;;;;9.70;5.10;;;15.20;59.50;;;;;;5075953;28;20392;-72
2021/03/26 13:25:22;;;;;;;9.98;4.70;;;15.20;58.70;;;;;;5075766;28;20040;-72
2021/03/26 13:27:57;;;;;;;6.13;3.95;;;15.00;57.60;;;;;;5076215;28;20048;-72
2021/03/26 13:30:57;;;;;;;8.48;4.30;;;14.90;58.50;;;;;;5075655;28;20149;-72
2021/03/26 13:33:29;;;;;;;7.55;3.50;;;14.90;58.20;;;;;;5032293;28;20484;-72
2021/03/26 13:35:54;;;;;;;8.98;4.15;;;14.80;57.80;;;;;;5075343;28;20047;-72
2021/03/26 13:38:26;;;;;;;8.55;4.20;;;14.70;58.80;;;;;;5075935;28;20044;-72
2021/03/26 13:40:55;;;;;;;9.65;4.70;;;14.60;60.10;;;;;;5075664;28;20547;-72
2021/03/26 13:43:30;;;;;;;8.95;5.55;;;14.70;60.60;;;;;;5076177;28;20443;-72
2021/03/26 13:45:59;;;;;;;8.07;4.95;;;14.60;58.20;;;;;;5075392;28;20040;-72